createdAt,value
2023-01-06T00:00:23.591Z,77.27
2023-01-06T00:03:32.027Z,77.35
2023-01-06T00:06:40.440Z,77.44
2023-01-06T00:09:55.394Z,77.41
2023-01-06T00:12:57.323Z,77.71
2023-01-06T00:16:15.505Z,77.85
2023-01-06T00:19:17.472Z,77.60
2023-01-06T00:22:32.428Z,77.29
2023-01-06T00:25:40.437Z,77.57
2023-01-06T00:28:52.831Z,77.79
2023-01-06T00:32:01.512Z,78.17
2023-01-06T00:35:12.962Z,77.54
2023-01-06T00:38:21.466Z,77.50
2023-01-06T00:41:36.399Z,77.35
2023-01-06T00:44:39.620Z,76.86
2023-01-06T00:47:54.412Z,77.25
2023-01-06T00:51:10.487Z,77.15
2023-01-06T00:54:26.439Z,77.15
2023-01-06T00:57:35.178Z,77.33
2023-01-06T01:00:44.473Z,78.11
2023-01-06T01:03:53.342Z,78.03
2023-01-06T01:07:02.455Z,77.58
2023-01-06T01:10:18.409Z,78.20
2023-01-06T01:13:20.212Z,77.89
2023-01-06T01:16:34.421Z,77.65
2023-01-06T01:19:49.499Z,78.16
2023-01-06T01:23:04.443Z,77.92
2023-01-06T01:26:06.468Z,77.55
2023-01-06T01:29:23.513Z,77.24
2023-01-06T01:32:25.574Z,77.15
2023-01-06T01:35:40.539Z,77.15
2023-01-06T01:38:42.708Z,77.33
2023-01-06T01:41:58.496Z,77.51
2023-01-06T01:45:14.472Z,77.05
2023-01-06T01:48:37.483Z,77.22
2023-01-06T01:51:43.508Z,77.17
2023-01-06T01:55:01.450Z,77.72
2023-01-06T01:58:18.515Z,77.84
2023-01-06T02:01:28.106Z,77.68
2023-01-06T02:04:41.732Z,76.91
2023-01-06T02:07:50.523Z,76.66
2023-01-06T02:10:58.468Z,76.45
2023-01-06T02:14:17.440Z,76.25
2023-01-06T02:18:02.520Z,75.32
2023-01-06T02:21:31.509Z,75.33
2023-01-06T02:25:19.485Z,75.94
2023-01-06T02:28:50.900Z,75.75
2023-01-06T02:32:08.469Z,76.00
2023-01-06T02:35:37.030Z,76.73
2023-01-06T02:39:11.625Z,77.59
2023-01-06T02:42:45.526Z,77.91
2023-01-06T02:46:12.558Z,78.67
2023-01-06T02:49:47.479Z,79.02
2023-01-06T02:53:06.524Z,79.38
2023-01-06T02:56:28.525Z,79.68
2023-01-06T02:59:44.504Z,79.68
2023-01-06T03:02:58.883Z,79.72
2023-01-06T03:06:13.493Z,79.59
2023-01-06T03:09:34.620Z,78.57
2023-01-06T03:12:46.089Z,79.13
2023-01-06T03:16:01.579Z,79.12
2023-01-06T03:19:17.389Z,79.27
2023-01-06T03:22:27.507Z,78.84
2023-01-06T03:25:38.225Z,78.54
2023-01-06T03:28:46.529Z,77.79
2023-01-06T03:32:17.529Z,77.05
2023-01-06T03:35:35.752Z,77.38
2023-01-06T03:39:01.534Z,77.61
2023-01-06T03:42:35.923Z,77.07
2023-01-06T03:46:17.628Z,76.96
2023-01-06T03:49:31.596Z,76.82
2023-01-06T03:52:56.560Z,76.83
2023-01-06T03:56:10.639Z,76.77
2023-01-06T03:59:35.513Z,77.06
2023-01-06T04:02:39.848Z,77.03
2023-01-06T04:05:54.555Z,77.24
2023-01-06T04:08:56.409Z,77.33
2023-01-06T04:12:11.552Z,77.39
2023-01-06T04:15:27.689Z,77.11
2023-01-06T04:18:42.860Z,77.17
2023-01-06T04:21:51.571Z,76.91
2023-01-06T04:25:06.589Z,76.14
2023-01-06T04:28:14.559Z,76.57
2023-01-06T04:31:23.583Z,76.63
2023-01-06T04:34:31.530Z,76.92
2023-01-06T04:37:40.237Z,77.52
2023-01-06T04:40:49.629Z,77.28
2023-01-06T04:44:04.535Z,77.60
2023-01-06T04:47:06.496Z,77.59
2023-01-06T04:50:22.585Z,77.10
2023-01-06T04:53:24.375Z,77.77
2023-01-06T04:56:39.591Z,78.02
2023-01-06T04:59:41.475Z,78.45
2023-01-06T05:02:57.692Z,78.32
2023-01-06T05:06:02.394Z,78.21
2023-01-06T05:09:20.752Z,77.45
2023-01-06T05:12:29.235Z,77.78
2023-01-06T05:15:37.618Z,76.94
2023-01-06T05:19:00.659Z,77.21
2023-01-06T05:22:08.596Z,77.67
2023-01-06T05:25:23.573Z,77.83
2023-01-06T05:28:32.605Z,78.34
2023-01-06T05:31:41.376Z,78.05
2023-01-06T05:34:49.616Z,78.26
2023-01-06T05:37:58.215Z,77.75
2023-01-06T05:41:06.650Z,78.18
2023-01-06T05:44:21.581Z,77.67
2023-01-06T05:47:29.589Z,77.29
2023-01-06T05:50:44.671Z,77.13
2023-01-06T05:53:47.683Z,77.01
2023-01-06T05:57:02.594Z,76.99
2023-01-06T06:00:06.208Z,77.16
2023-01-06T06:03:20.650Z,76.87
2023-01-06T06:06:31.637Z,76.85
2023-01-06T06:09:40.403Z,77.09
2023-01-06T06:12:48.638Z,77.03
2023-01-06T06:16:07.545Z,77.45
2023-01-06T06:19:22.638Z,77.25
2023-01-06T06:22:31.251Z,77.30
2023-01-06T06:25:39.628Z,76.73
2023-01-06T06:28:54.653Z,76.77
2023-01-06T06:31:56.470Z,76.38
2023-01-06T06:35:12.632Z,76.33
2023-01-06T06:38:14.808Z,76.14
2023-01-06T06:41:31.639Z,76.44
2023-01-06T06:44:33.580Z,76.10
2023-01-06T06:47:48.585Z,75.87
2023-01-06T06:51:06.054Z,76.08
2023-01-06T06:54:20.730Z,76.24
2023-01-06T06:57:29.635Z,76.32
2023-01-06T07:00:44.645Z,76.61
2023-01-06T07:03:53.606Z,76.48
2023-01-06T07:07:08.626Z,76.57
2023-01-06T07:10:15.394Z,76.66
2023-01-06T07:13:31.639Z,76.31
2023-01-06T07:16:33.408Z,76.84
2023-01-06T07:19:55.612Z,76.69
2023-01-06T07:23:03.640Z,77.09
2023-01-06T07:26:18.698Z,77.27
2023-01-06T07:29:26.675Z,77.04
2023-01-06T07:32:35.465Z,77.18
2023-01-06T07:35:43.651Z,77.93
2023-01-06T07:38:52.579Z,77.59
2023-01-06T07:42:01.667Z,77.87
2023-01-06T07:45:11.348Z,77.80
2023-01-06T07:48:19.740Z,77.94
2023-01-06T07:51:34.632Z,77.93
2023-01-06T07:54:42.659Z,77.64
2023-01-06T07:57:58.749Z,77.55
2023-01-06T08:01:12.716Z,77.58
2023-01-06T08:04:21.366Z,77.59
2023-01-06T08:07:29.641Z,77.16
2023-01-06T08:10:42.761Z,76.83
2023-01-06T08:13:57.697Z,75.78
2023-01-06T08:17:19.725Z,76.16
2023-01-06T08:20:34.648Z,74.92
2023-01-06T08:23:49.680Z,75.02
2023-01-06T08:26:51.553Z,74.51
2023-01-06T08:30:06.681Z,74.72
2023-01-06T08:33:14.658Z,74.51
2023-01-06T08:36:31.693Z,73.64
2023-01-06T08:39:39.672Z,72.91
2023-01-06T08:42:48.332Z,73.26
2023-01-06T08:45:56.800Z,71.74
2023-01-06T08:49:05.364Z,71.95
2023-01-06T08:52:13.758Z,71.63
2023-01-06T08:55:28.721Z,71.77
2023-01-06T08:58:30.794Z,71.01
2023-01-06T09:01:46.804Z,69.21
2023-01-06T09:04:48.897Z,69.26
2023-01-06T09:08:03.767Z,68.63
2023-01-06T09:11:07.428Z,68.45
2023-01-06T09:14:21.726Z,68.11
2023-01-06T09:17:29.683Z,68.31
2023-01-06T09:20:38.400Z,68.31
2023-01-06T09:23:54.710Z,68.67
2023-01-06T09:27:02.677Z,68.52
2023-01-06T09:30:18.725Z,67.91
2023-01-06T09:33:20.728Z,67.63
2023-01-06T09:36:35.735Z,67.16
2023-01-06T09:39:37.601Z,67.32
2023-01-06T09:43:12.738Z,66.99
2023-01-06T09:46:25.772Z,66.95
2023-01-06T09:49:53.775Z,66.63
2023-01-06T09:53:11.834Z,66.50
2023-01-06T09:56:23.715Z,66.54
2023-01-06T09:59:51.855Z,67.06
2023-01-06T10:03:00.512Z,66.65
2023-01-06T10:06:43.802Z,66.16
2023-01-06T10:10:05.726Z,65.98
2023-01-06T10:13:39.088Z,65.76
2023-01-06T10:17:17.783Z,66.17
2023-01-06T10:21:07.730Z,65.89
2023-01-06T10:24:28.540Z,66.13
2023-01-06T10:27:48.736Z,66.38
2023-01-06T10:31:02.354Z,65.73
2023-01-06T10:34:12.796Z,66.24
2023-01-06T10:37:26.027Z,66.00
2023-01-06T10:40:36.851Z,65.58
2023-01-06T10:43:51.768Z,65.33
2023-01-06T10:46:53.703Z,64.68
2023-01-06T10:50:08.787Z,63.67
2023-01-06T10:53:17.389Z,63.70
2023-01-06T10:56:25.888Z,63.59
2023-01-06T11:00:00.787Z,63.16
2023-01-06T11:03:31.880Z,62.35
2023-01-06T11:06:41.784Z,62.01
2023-01-06T11:09:50.653Z,61.47
2023-01-06T11:12:59.748Z,61.44
2023-01-06T11:16:28.814Z,61.80
2023-01-06T11:19:46.776Z,61.63
2023-01-06T11:23:01.756Z,61.61
2023-01-06T11:26:19.838Z,62.14
2023-01-06T11:29:39.847Z,61.77
2023-01-06T11:32:48.677Z,62.19
2023-01-06T11:35:58.832Z,61.80
2023-01-06T11:39:27.562Z,61.51
2023-01-06T11:42:36.798Z,61.20
2023-01-06T11:45:59.879Z,61.61
2023-01-06T11:49:06.450Z,61.15
2023-01-06T11:52:34.817Z,61.75
2023-01-06T11:55:36.737Z,61.49
2023-01-06T11:59:18.815Z,61.45
2023-01-06T12:02:47.775Z,61.03
2023-01-06T12:05:58.925Z,61.00
2023-01-06T12:09:26.841Z,61.17
2023-01-06T12:12:41.829Z,61.36
2023-01-06T12:15:47.608Z,61.66
2023-01-06T12:19:15.806Z,61.48
2023-01-06T12:22:50.776Z,60.63
2023-01-06T12:26:04.791Z,60.39
2023-01-06T12:29:19.048Z,60.33
2023-01-06T12:32:31.841Z,60.79
2023-01-06T12:35:43.508Z,60.32
2023-01-06T12:39:01.870Z,60.62
2023-01-06T12:42:33.002Z,60.21
2023-01-06T12:46:01.895Z,60.50
2023-01-06T12:49:12.533Z,60.56
2023-01-06T12:52:34.818Z,60.45
2023-01-06T12:55:53.424Z,60.03
2023-01-06T12:59:31.889Z,61.00
2023-01-06T13:03:09.889Z,60.64
2023-01-06T13:06:41.832Z,61.09
2023-01-06T13:10:05.819Z,61.75
2023-01-06T13:13:34.119Z,62.06
2023-01-06T13:16:53.923Z,62.33
2023-01-06T13:20:28.072Z,61.48
2023-01-06T13:24:06.883Z,61.50
2023-01-06T13:27:38.909Z,61.62
2023-01-06T13:31:05.477Z,62.11
2023-01-06T13:34:35.921Z,62.46
2023-01-06T13:37:42.256Z,61.87
2023-01-06T13:40:57.883Z,61.35
2023-01-06T13:44:01.201Z,61.41
2023-01-06T13:47:20.851Z,62.30
2023-01-06T13:50:30.887Z,62.62
2023-01-06T13:53:42.061Z,62.49
2023-01-06T13:56:50.860Z,62.77
2023-01-06T14:00:26.863Z,62.49
2023-01-06T14:03:36.948Z,63.08
2023-01-06T14:06:51.932Z,63.17
2023-01-06T14:10:01.767Z,63.36
2023-01-06T14:13:23.986Z,63.75
2023-01-06T14:16:43.489Z,63.23
2023-01-06T14:20:00.892Z,63.68
2023-01-06T14:23:30.893Z,64.29
2023-01-06T14:26:53.071Z,64.35
2023-01-06T14:30:24.852Z,64.39
2023-01-06T14:33:44.712Z,64.66
2023-01-06T14:36:59.894Z,64.85
2023-01-06T14:40:02.217Z,64.88
2023-01-06T14:43:36.005Z,65.13
2023-01-06T14:46:56.871Z,65.65
2023-01-06T14:50:07.609Z,65.53
2023-01-06T14:53:32.940Z,65.32
2023-01-06T14:56:34.789Z,65.50
2023-01-06T14:59:49.945Z,65.15
2023-01-06T15:03:08.931Z,65.79
2023-01-06T15:06:20.025Z,66.86
2023-01-06T15:09:35.907Z,67.56
2023-01-06T15:12:52.729Z,68.51
2023-01-06T15:16:15.170Z,69.01
2023-01-06T15:19:30.948Z,69.37
2023-01-06T15:22:39.922Z,69.90
2023-01-06T15:25:48.941Z,70.09
2023-01-06T15:29:08.945Z,70.62
2023-01-06T15:32:13.111Z,70.95
2023-01-06T15:35:32.938Z,71.22
2023-01-06T15:38:45.013Z,71.67
2023-01-06T15:41:54.461Z,71.97
2023-01-06T15:45:07.695Z,72.28
2023-01-06T15:48:28.017Z,72.87
2023-01-06T15:51:36.949Z,73.34
2023-01-06T15:54:46.285Z,73.63
2023-01-06T15:58:02.960Z,73.98
2023-01-06T16:01:14.526Z,74.27
2023-01-06T16:04:24.050Z,74.53
2023-01-06T16:07:37.423Z,74.52
2023-01-06T16:10:45.933Z,74.65
2023-01-06T16:13:58.864Z,75.18
2023-01-06T16:17:20.002Z,75.70
2023-01-06T16:20:34.972Z,75.77
2023-01-06T16:23:51.415Z,75.96
2023-01-06T16:27:04.952Z,76.12
2023-01-06T16:30:30.965Z,76.28
2023-01-06T16:33:43.948Z,76.31
2023-01-06T16:36:55.571Z,76.39
2023-01-06T16:40:10.994Z,76.41
2023-01-06T16:43:12.811Z,76.19
2023-01-06T16:46:29.992Z,76.38
2023-01-06T16:49:38.984Z,76.82
2023-01-06T16:52:58.031Z,77.25
2023-01-06T16:56:07.970Z,77.21
2023-01-06T16:59:18.830Z,77.35
2023-01-06T17:02:28.024Z,77.59
2023-01-06T17:05:36.980Z,77.72
2023-01-06T17:08:46.285Z,77.93
2023-01-06T17:11:54.717Z,77.51
2023-01-06T17:15:03.009Z,77.44
2023-01-06T17:18:34.000Z,77.62
2023-01-06T17:21:48.965Z,77.78
2023-01-06T17:25:08.085Z,78.10
2023-01-06T17:28:18.198Z,77.88
2023-01-06T17:31:40.034Z,77.74
2023-01-06T17:34:42.102Z,77.95
2023-01-06T17:37:56.992Z,78.03
2023-01-06T17:40:58.956Z,77.99
2023-01-06T17:44:25.002Z,78.08
2023-01-06T17:47:36.953Z,78.01
2023-01-06T17:50:51.559Z,78.37
2023-01-06T17:53:59.988Z,78.32
2023-01-06T17:57:14.967Z,78.72
2023-01-06T18:00:30.079Z,78.55
2023-01-06T18:03:49.032Z,78.95
2023-01-06T18:06:54.287Z,79.17
2023-01-06T18:10:12.058Z,79.38
2023-01-06T18:13:34.000Z,79.67
2023-01-06T18:16:38.107Z,79.69
2023-01-06T18:20:00.062Z,80.02
2023-01-06T18:23:25.021Z,79.96
2023-01-06T18:26:46.004Z,80.05
2023-01-06T18:29:48.043Z,80.06
2023-01-06T18:33:03.013Z,80.21
2023-01-06T18:36:11.629Z,80.10
2023-01-06T18:39:20.059Z,79.97
2023-01-06T18:42:34.407Z,80.06
2023-01-06T18:45:43.043Z,80.18
2023-01-06T18:48:54.664Z,80.05
2023-01-06T18:52:31.071Z,80.14
2023-01-06T18:55:43.881Z,80.47
2023-01-06T18:58:56.025Z,80.61
2023-01-06T19:02:35.157Z,80.62
2023-01-06T19:05:37.183Z,80.42
2023-01-06T19:08:56.905Z,80.52
2023-01-06T19:12:15.747Z,80.40
2023-01-06T19:15:33.076Z,80.85
2023-01-06T19:18:35.018Z,80.93
2023-01-06T19:21:58.038Z,81.04
2023-01-06T19:25:19.864Z,81.78
2023-01-06T19:28:38.045Z,81.54
2023-01-06T19:31:55.038Z,81.88
2023-01-06T19:35:04.153Z,81.92
2023-01-06T19:38:32.117Z,82.06
2023-01-06T19:41:34.290Z,82.08
2023-01-06T19:44:50.073Z,82.36
2023-01-06T19:47:59.280Z,82.96
2023-01-06T19:51:29.088Z,83.21
2023-01-06T19:54:37.731Z,83.38
2023-01-06T19:57:49.062Z,83.71
2023-01-06T20:00:57.914Z,84.14
2023-01-06T20:04:07.078Z,84.34
2023-01-06T20:07:22.137Z,84.49
2023-01-06T20:10:25.224Z,84.52
2023-01-06T20:13:40.080Z,84.44
2023-01-06T20:16:42.047Z,84.59
2023-01-06T20:19:57.085Z,84.84
2023-01-06T20:23:05.393Z,84.96
2023-01-06T20:26:20.082Z,85.01
2023-01-06T20:29:28.127Z,85.13
2023-01-06T20:32:43.187Z,85.13
2023-01-06T20:35:45.078Z,85.01
2023-01-06T20:39:00.242Z,85.22
2023-01-06T20:42:09.473Z,85.17
2023-01-06T20:45:18.736Z,85.28
2023-01-06T20:48:27.104Z,85.95
2023-01-06T20:51:36.090Z,86.08
2023-01-06T20:54:44.146Z,85.71
2023-01-06T20:57:52.921Z,85.52
2023-01-06T21:01:03.158Z,85.58
2023-01-06T21:04:11.748Z,85.63
2023-01-06T21:07:20.136Z,85.65
2023-01-06T21:10:28.845Z,85.36
2023-01-06T21:13:37.126Z,85.17
2023-01-06T21:16:45.736Z,84.87
2023-01-06T21:19:54.124Z,85.07
2023-01-06T21:23:09.681Z,84.94
2023-01-06T21:26:18.107Z,84.98
2023-01-06T21:29:26.907Z,85.26
2023-01-06T21:32:35.166Z,85.25
2023-01-06T21:35:43.826Z,85.13
2023-01-06T21:38:52.134Z,85.33
2023-01-06T21:42:00.873Z,85.29
2023-01-06T21:45:09.156Z,85.09
2023-01-06T21:48:24.160Z,84.93
2023-01-06T21:51:41.115Z,85.08
2023-01-06T21:54:51.081Z,85.29
2023-01-06T21:57:59.826Z,85.08
2023-01-06T22:01:08.304Z,84.86
2023-01-06T22:04:16.826Z,84.79
2023-01-06T22:07:25.161Z,84.77
2023-01-06T22:10:43.153Z,84.64
2023-01-06T22:13:59.231Z,84.68
2023-01-06T22:17:07.244Z,85.74
2023-01-06T22:20:22.598Z,86.40
2023-01-06T22:23:31.139Z,87.34
2023-01-06T22:26:39.762Z,88.29
2023-01-06T22:29:48.157Z,88.88
2023-01-06T22:32:57.072Z,88.99
2023-01-06T22:36:06.129Z,89.63
2023-01-06T22:39:15.234Z,90.22
2023-01-06T22:42:23.223Z,90.55
2023-01-06T22:45:34.421Z,90.55
2023-01-06T22:48:45.522Z,90.47
2023-01-06T22:52:00.142Z,90.25
2023-01-06T22:55:15.171Z,90.09
2023-01-06T22:58:17.097Z,90.44
2023-01-06T23:01:32.265Z,90.65
2023-01-06T23:04:41.168Z,90.67
2023-01-06T23:07:56.176Z,90.89
2023-01-06T23:11:01.171Z,90.89
2023-01-06T23:14:19.243Z,90.81
2023-01-06T23:17:21.164Z,91.01
2023-01-06T23:20:36.174Z,91.42
2023-01-06T23:23:40.470Z,91.29
2023-01-06T23:26:55.143Z,91.35
2023-01-06T23:30:04.177Z,91.32
2023-01-06T23:33:12.805Z,91.42
2023-01-06T23:36:23.175Z,91.82
2023-01-06T23:39:31.818Z,91.89
2023-01-06T23:42:48.262Z,91.82
2023-01-06T23:46:12.264Z,91.99
2023-01-06T23:49:23.194Z,91.86
2023-01-06T23:52:40.216Z,92.04
2023-01-06T23:55:42.065Z,92.22
2023-01-06T23:59:01.203Z,92.05
